createdAt,value
2023-05-21T00:01:25.983Z,102161.63
2023-05-21T00:03:52.937Z,102164.94
2023-05-21T00:06:21.269Z,102156.88
2023-05-21T00:08:47.909Z,102153.47
2023-05-21T00:11:14.693Z,102156.72
2023-05-21T00:13:41.604Z,102149.75
2023-05-21T00:16:08.247Z,102153.53
2023-05-21T00:18:34.896Z,102156.22
2023-05-21T00:21:01.808Z,102157.31
2023-05-21T00:23:28.561Z,102146.06
2023-05-21T00:25:55.208Z,102147.16
2023-05-21T00:28:21.909Z,102141.28
2023-05-21T00:30:48.585Z,102139.41
2023-05-21T00:33:15.916Z,102140.50
2023-05-21T00:35:42.580Z,102133.25
2023-05-21T00:38:09.475Z,102142.69
2023-05-21T00:40:36.463Z,102135.50
2023-05-21T00:43:03.511Z,102140.19
2023-05-21T00:45:30.367Z,102132.69
2023-05-21T00:47:57.184Z,102143.22
2023-05-21T00:50:24.593Z,102130.41
2023-05-21T00:52:51.816Z,102127.72
2023-05-21T00:55:18.495Z,102125.81
2023-05-21T00:57:46.273Z,102128.50
2023-05-21T01:00:14.945Z,102127.72
2023-05-21T01:02:42.132Z,102120.72
2023-05-21T01:05:10.794Z,102124.53
2023-05-21T01:07:41.739Z,102118.38
2023-05-21T01:10:10.553Z,102117.03
2023-05-21T01:12:39.769Z,102117.88
2023-05-21T01:15:07.108Z,102117.88
2023-05-21T01:17:34.525Z,102123.53
2023-05-21T01:20:02.110Z,102108.53
2023-05-21T01:22:32.749Z,102108.00
2023-05-21T01:25:02.975Z,102105.91
2023-05-21T01:27:29.732Z,102108.09
2023-05-21T01:29:57.147Z,102112.94
2023-05-21T01:32:45.847Z,102106.28
2023-05-21T01:35:17.535Z,102107.69
2023-05-21T01:37:52.011Z,102101.00
2023-05-21T01:40:26.689Z,102102.97
2023-05-21T01:42:53.815Z,102102.47
2023-05-21T01:45:24.306Z,102102.25
2023-05-21T01:47:53.685Z,102107.13
2023-05-21T01:50:21.686Z,102106.91
2023-05-21T01:53:01.155Z,102104.53
2023-05-21T01:55:28.295Z,102111.13
2023-05-21T01:57:56.004Z,102102.44
2023-05-21T02:00:24.840Z,102103.22
2023-05-21T02:02:52.160Z,102102.28
2023-05-21T02:05:18.936Z,102107.41
2023-05-21T02:07:46.347Z,102100.75
2023-05-21T02:10:13.431Z,102098.94
2023-05-21T02:12:39.952Z,102100.00
2023-05-21T02:15:07.103Z,102098.75
2023-05-21T02:17:38.700Z,102100.66
2023-05-21T02:20:12.192Z,102097.69
2023-05-21T02:22:40.110Z,102092.38
2023-05-21T02:25:09.364Z,102091.66
2023-05-21T02:27:37.988Z,102092.81
2023-05-21T02:30:07.097Z,102093.38
2023-05-21T02:32:34.884Z,102096.94
2023-05-21T02:35:03.686Z,102095.63
2023-05-21T02:37:33.875Z,102101.00
2023-05-21T02:40:01.916Z,102105.56
2023-05-21T02:42:28.431Z,102097.56
2023-05-21T02:44:55.229Z,102096.78
2023-05-21T02:47:23.864Z,102095.16
2023-05-21T02:49:51.914Z,102100.31
2023-05-21T02:52:19.731Z,102098.44
2023-05-21T02:54:47.351Z,102094.44
2023-05-21T02:57:14.016Z,102095.28
2023-05-21T02:59:40.930Z,102100.16
2023-05-21T03:02:07.583Z,102097.25
2023-05-21T03:04:39.328Z,102090.88
2023-05-21T03:07:06.646Z,102092.44
2023-05-21T03:09:33.276Z,102098.31
2023-05-21T03:11:59.868Z,102095.34
2023-05-21T03:14:26.550Z,102094.56
2023-05-21T03:16:53.450Z,102088.47
2023-05-21T03:19:21.045Z,102095.19
2023-05-21T03:21:49.160Z,102084.25
2023-05-21T03:24:15.783Z,102087.19
2023-05-21T03:26:42.326Z,102084.84
2023-05-21T03:29:09.013Z,102078.13
2023-05-21T03:31:36.039Z,102075.47
2023-05-21T03:34:02.667Z,102080.25
2023-05-21T03:36:29.279Z,102074.91
2023-05-21T03:38:55.782Z,102074.13
2023-05-21T03:41:22.386Z,102073.59
2023-05-21T03:43:49.055Z,102069.59
2023-05-21T03:46:15.884Z,102066.41
2023-05-21T03:48:42.515Z,102069.94
2023-05-21T03:51:09.757Z,102076.59
2023-05-21T03:53:36.693Z,102070.72
2023-05-21T03:56:03.600Z,102075.03
2023-05-21T03:58:30.896Z,102072.34
2023-05-21T04:00:57.722Z,102065.88
2023-05-21T04:03:24.361Z,102074.22
2023-05-21T04:05:51.098Z,102063.50
2023-05-21T04:08:17.867Z,102061.91
2023-05-21T04:10:44.495Z,102068.34
2023-05-21T04:13:11.345Z,102066.75
2023-05-21T04:15:38.853Z,102066.97
2023-05-21T04:18:07.329Z,102072.84
2023-05-21T04:20:34.085Z,102078.47
2023-05-21T04:23:01.208Z,102068.34
2023-05-21T04:25:27.887Z,102065.16
2023-05-21T04:27:54.905Z,102074.56
2023-05-21T04:30:22.102Z,102072.44
2023-05-21T04:32:48.888Z,102077.81
2023-05-21T04:35:15.721Z,102075.13
2023-05-21T04:37:42.499Z,102080.81
2023-05-21T04:40:09.911Z,102079.72
2023-05-21T04:42:36.603Z,102078.94
2023-05-21T04:45:03.335Z,102080.53
2023-05-21T04:47:35.850Z,102083.22
2023-05-21T04:50:02.853Z,102073.31
2023-05-21T04:52:29.493Z,102084.28
2023-05-21T04:54:56.179Z,102078.94
2023-05-21T04:57:24.696Z,102082.41
2023-05-21T04:59:51.358Z,102077.56
2023-05-21T05:02:18.028Z,102075.13
2023-05-21T05:04:44.840Z,102087.44
2023-05-21T05:07:12.461Z,102089.59
2023-05-21T05:09:39.072Z,102087.44
2023-05-21T05:12:06.066Z,102084.75
2023-05-21T05:14:32.795Z,102097.28
2023-05-21T05:17:00.836Z,102091.09
2023-05-21T05:19:27.662Z,102086.50
2023-05-21T05:21:54.411Z,102081.75
2023-05-21T05:24:21.033Z,102082.25
2023-05-21T05:26:47.754Z,102080.59
2023-05-21T05:29:14.443Z,102083.81
2023-05-21T05:31:41.505Z,102078.97
2023-05-21T05:34:08.065Z,102081.56
2023-05-21T05:36:34.725Z,102082.16
2023-05-21T05:39:01.392Z,102088.34
2023-05-21T05:41:28.183Z,102078.13
2023-05-21T05:43:55.037Z,102088.56
2023-05-21T05:46:21.782Z,102082.19
2023-05-21T05:48:48.520Z,102081.63
2023-05-21T05:51:17.175Z,102085.63
2023-05-21T05:53:43.830Z,102085.38
2023-05-21T05:56:10.617Z,102078.13
2023-05-21T05:58:37.489Z,102082.34
2023-05-21T06:01:04.115Z,102087.66
2023-05-21T06:03:30.957Z,102081.81
2023-05-21T06:05:57.727Z,102076.69
2023-05-21T06:08:24.645Z,102072.88
2023-05-21T06:10:51.510Z,102070.38
2023-05-21T06:13:18.186Z,102070.91
2023-05-21T06:15:44.777Z,102065.50
2023-05-21T06:18:11.604Z,102064.03
2023-05-21T06:20:38.466Z,102071.78
2023-05-21T06:23:06.545Z,102058.91
2023-05-21T06:25:33.183Z,102064.72
2023-05-21T06:27:59.962Z,102070.00
2023-05-21T06:30:26.591Z,102059.38
2023-05-21T06:32:53.251Z,102060.47
2023-05-21T06:35:20.304Z,102066.56
2023-05-21T06:37:46.934Z,102064.22
2023-05-21T06:40:13.681Z,102064.28
2023-05-21T06:42:40.470Z,102061.41
2023-05-21T06:45:07.798Z,102056.38
2023-05-21T06:47:34.563Z,102056.91
2023-05-21T06:50:01.175Z,102059.81
2023-05-21T06:52:27.846Z,102059.94
2023-05-21T06:54:54.470Z,102060.53
2023-05-21T06:57:21.017Z,102055.06
2023-05-21T06:59:47.767Z,102056.19
2023-05-21T07:02:14.488Z,102056.47
2023-05-21T07:04:41.257Z,102050.19
2023-05-21T07:07:07.886Z,102059.13
2023-05-21T07:09:34.565Z,102057.84
2023-05-21T07:12:02.242Z,102053.63
2023-05-21T07:14:28.881Z,102042.78
2023-05-21T07:16:55.471Z,102044.13
2023-05-21T07:19:22.203Z,102054.47
2023-05-21T07:21:49.442Z,102046.16
2023-05-21T07:24:16.080Z,102048.19
2023-05-21T07:26:42.717Z,102052.41
2023-05-21T07:29:09.455Z,102060.56
2023-05-21T07:31:36.245Z,102046.59
2023-05-21T07:34:02.928Z,102055.75
2023-05-21T07:36:30.050Z,102063.34
2023-05-21T07:38:56.728Z,102059.13
2023-05-21T07:41:23.411Z,102053.84
2023-05-21T07:43:49.995Z,102058.09
2023-05-21T07:46:16.654Z,102057.56
2023-05-21T07:48:43.878Z,102048.81
2023-05-21T07:51:11.596Z,102055.16
2023-05-21T07:53:38.248Z,102056.47
2023-05-21T07:56:05.162Z,102056.63
2023-05-21T07:58:32.825Z,102052.41
2023-05-21T08:00:59.438Z,102050.16
2023-05-21T08:03:26.745Z,102042.53
2023-05-21T08:05:53.614Z,102038.22
2023-05-21T08:08:20.327Z,102037.66
2023-05-21T08:10:47.917Z,102031.19
2023-05-21T08:13:16.398Z,102028.72
2023-05-21T08:15:43.219Z,102028.75
2023-05-21T08:18:10.009Z,102029.03
2023-05-21T08:20:37.077Z,102022.22
2023-05-21T08:23:04.193Z,102020.97
2023-05-21T08:25:30.993Z,102020.34
2023-05-21T08:27:57.838Z,102029.69
2023-05-21T08:30:24.578Z,102026.81
2023-05-21T08:32:51.382Z,102035.56
2023-05-21T08:35:18.205Z,102028.75
2023-05-21T08:37:44.995Z,102022.94
2023-05-21T08:40:12.363Z,102023.59
2023-05-21T08:42:45.419Z,102026.13
2023-05-21T08:45:14.389Z,102022.66
2023-05-21T08:47:44.504Z,102025.53
2023-05-21T08:50:16.493Z,102023.31
2023-05-21T08:52:43.109Z,102026.00
2023-05-21T08:55:10.467Z,102028.03
2023-05-21T08:57:37.370Z,102024.09
2023-05-21T09:00:07.169Z,102031.09
2023-05-21T09:02:35.337Z,102039.50
2023-05-21T09:05:03.483Z,102028.25
2023-05-21T09:07:31.937Z,102042.53
2023-05-21T09:10:05.733Z,102031.56
2023-05-21T09:12:32.885Z,102026.34
2023-05-21T09:15:01.340Z,102036.34
2023-05-21T09:17:28.182Z,102024.13
2023-05-21T09:20:15.289Z,102015.81
2023-05-21T09:22:42.965Z,102027.88
2023-05-21T09:25:11.642Z,102019.91
2023-05-21T09:27:38.922Z,102018.16
2023-05-21T09:30:11.501Z,102012.09
2023-05-21T09:32:39.317Z,102012.56
2023-05-21T09:35:10.730Z,102011.44
2023-05-21T09:37:45.372Z,102010.59
2023-05-21T09:40:16.459Z,102017.06
2023-05-21T09:42:47.987Z,102014.50
2023-05-21T09:45:26.212Z,102013.53
2023-05-21T09:47:54.897Z,102007.31
2023-05-21T09:50:29.501Z,102002.06
2023-05-21T09:52:56.412Z,101997.91
2023-05-21T09:55:24.895Z,101996.50
2023-05-21T09:57:53.060Z,101992.50
2023-05-21T10:00:24.457Z,101985.63
2023-05-21T10:02:55.802Z,101995.69
2023-05-21T10:05:26.657Z,101979.84
2023-05-21T10:07:57.870Z,101989.31
2023-05-21T10:10:24.527Z,101990.28
2023-05-21T10:12:59.116Z,101975.81
2023-05-21T10:15:30.317Z,101979.34
2023-05-21T10:17:57.649Z,101972.28
2023-05-21T10:20:24.819Z,101964.00
2023-05-21T10:22:52.172Z,101963.72
2023-05-21T10:25:19.926Z,101966.34
2023-05-21T10:27:48.524Z,101967.41
2023-05-21T10:30:15.832Z,101970.41
2023-05-21T10:32:43.029Z,101957.31
2023-05-21T10:35:10.845Z,101967.69
2023-05-21T10:37:37.850Z,101958.69
2023-05-21T10:40:04.992Z,101962.41
2023-05-21T10:42:36.210Z,101949.09
2023-05-21T10:45:27.607Z,101941.78
2023-05-21T10:48:57.951Z,101954.66
2023-05-21T10:51:49.470Z,101954.97
2023-05-21T10:54:48.883Z,101954.31
2023-05-21T10:57:42.499Z,101950.97
2023-05-21T11:00:12.762Z,101950.81
2023-05-21T11:02:39.950Z,101945.19
2023-05-21T11:05:07.195Z,101961.47
2023-05-21T11:07:59.588Z,101947.28
2023-05-21T11:10:40.997Z,101955.50
2023-05-21T11:13:15.586Z,101955.06
2023-05-21T11:16:01.383Z,101949.84
2023-05-21T11:18:38.937Z,101944.31
2023-05-21T11:21:06.481Z,101942.97
2023-05-21T11:23:55.438Z,101940.72
2023-05-21T11:26:26.368Z,101936.22
2023-05-21T11:29:08.897Z,101928.53
2023-05-21T11:31:39.373Z,101931.94
2023-05-21T11:34:28.417Z,101922.34
2023-05-21T11:37:21.818Z,101922.78
2023-05-21T11:39:49.927Z,101914.34
2023-05-21T11:42:38.991Z,101914.09
2023-05-21T11:45:06.127Z,101904.84
2023-05-21T11:47:33.110Z,101908.50
2023-05-21T11:50:01.964Z,101908.25
2023-05-21T11:52:30.241Z,101905.41
2023-05-21T11:55:00.096Z,101903.38
2023-05-21T11:57:33.328Z,101904.00
2023-05-21T12:00:02.644Z,101893.19
2023-05-21T12:02:33.192Z,101897.59
2023-05-21T12:05:00.898Z,101891.72
2023-05-21T12:07:29.882Z,101898.41
2023-05-21T12:09:57.538Z,101886.84
2023-05-21T12:12:33.081Z,101884.16
2023-05-21T12:15:06.996Z,101882.41
2023-05-21T12:17:34.251Z,101884.69
2023-05-21T12:20:02.234Z,101877.34
2023-05-21T12:22:29.901Z,101878.59
2023-05-21T12:24:58.468Z,101887.66
2023-05-21T12:27:25.226Z,101863.94
2023-05-21T12:29:53.207Z,101875.03
2023-05-21T12:32:21.652Z,101869.31
2023-05-21T12:34:52.739Z,101863.03
2023-05-21T12:37:25.435Z,101857.13
2023-05-21T12:39:53.914Z,101864.91
2023-05-21T12:42:27.989Z,101868.50
2023-05-21T12:44:54.974Z,101866.50
2023-05-21T12:47:28.179Z,101871.38
2023-05-21T12:49:58.122Z,101866.84
2023-05-21T12:52:25.628Z,101853.84
2023-05-21T12:54:56.343Z,101862.91
2023-05-21T12:57:30.010Z,101851.81
2023-05-21T13:00:01.271Z,101859.03
2023-05-21T13:02:29.921Z,101847.84
2023-05-21T13:05:03.955Z,101856.66
2023-05-21T13:07:32.434Z,101866.72
2023-05-21T13:10:00.792Z,101870.94
2023-05-21T13:12:29.836Z,101863.06
2023-05-21T13:14:58.183Z,101866.94
2023-05-21T13:17:26.266Z,101865.06
2023-05-21T13:20:12.678Z,101872.25
2023-05-21T13:22:46.692Z,101853.53
2023-05-21T13:25:19.874Z,101847.22
2023-05-21T13:27:50.261Z,101847.84
2023-05-21T13:30:17.664Z,101841.91
2023-05-21T13:32:45.010Z,101836.31
2023-05-21T13:35:12.571Z,101841.47
2023-05-21T13:37:40.891Z,101841.66
2023-05-21T13:40:11.254Z,101833.41
2023-05-21T13:42:38.910Z,101828.09
2023-05-21T13:45:10.448Z,101836.50
2023-05-21T13:47:39.922Z,101828.94
2023-05-21T13:50:08.370Z,101837.72
2023-05-21T13:52:35.237Z,101838.06
2023-05-21T13:55:02.197Z,101831.91
2023-05-21T13:57:31.022Z,101838.75
2023-05-21T13:59:59.222Z,101840.00
2023-05-21T14:02:26.482Z,101840.16
2023-05-21T14:04:53.988Z,101840.72
2023-05-21T14:07:21.578Z,101842.44
2023-05-21T14:09:48.481Z,101838.59
2023-05-21T14:12:15.219Z,101839.22
2023-05-21T14:14:42.309Z,101842.34
2023-05-21T14:17:09.004Z,101846.13
2023-05-21T14:19:35.825Z,101842.16
2023-05-21T14:22:02.476Z,101844.09
2023-05-21T14:24:29.146Z,101849.53
2023-05-21T14:26:56.091Z,101847.41
2023-05-21T14:29:23.302Z,101834.03
2023-05-21T14:31:50.058Z,101838.69
2023-05-21T14:34:16.739Z,101843.06
2023-05-21T14:36:43.552Z,101838.16
2023-05-21T14:39:10.270Z,101837.28
2023-05-21T14:41:39.590Z,101837.53
2023-05-21T14:44:06.182Z,101826.94
2023-05-21T14:46:33.113Z,101817.72
2023-05-21T14:49:00.594Z,101824.44
2023-05-21T14:51:27.266Z,101824.03
2023-05-21T14:53:54.040Z,101823.88
2023-05-21T14:56:21.903Z,101817.91
2023-05-21T14:58:48.709Z,101810.44
2023-05-21T15:01:15.502Z,101810.53
2023-05-21T15:03:42.226Z,101813.44
2023-05-21T15:06:09.434Z,101811.50
2023-05-21T15:08:36.284Z,101803.28
2023-05-21T15:11:02.895Z,101792.59
2023-05-21T15:13:29.506Z,101797.78
2023-05-21T15:15:56.286Z,101803.41
2023-05-21T15:18:24.718Z,101796.22
2023-05-21T15:20:51.581Z,101795.84
2023-05-21T15:23:18.465Z,101790.94
2023-05-21T15:25:45.865Z,101802.97
2023-05-21T15:28:13.084Z,101787.88
2023-05-21T15:30:40.476Z,101793.16
2023-05-21T15:33:07.276Z,101796.41
2023-05-21T15:35:35.956Z,101798.56
2023-05-21T15:38:03.154Z,101794.91
2023-05-21T15:40:29.722Z,101794.84
2023-05-21T15:42:56.359Z,101796.03
2023-05-21T15:45:22.970Z,101797.44
2023-05-21T15:47:49.661Z,101790.72
2023-05-21T15:50:16.325Z,101786.94
2023-05-21T15:52:43.184Z,101786.84
2023-05-21T15:55:10.035Z,101779.84
2023-05-21T15:57:36.874Z,101776.50
2023-05-21T16:00:04.975Z,101770.19
2023-05-21T16:02:31.548Z,101768.81
2023-05-21T16:04:58.160Z,101769.63
2023-05-21T16:07:24.831Z,101766.81
2023-05-21T16:09:51.570Z,101771.50
2023-05-21T16:12:18.408Z,101782.34
2023-05-21T16:14:45.057Z,101780.06
2023-05-21T16:17:11.925Z,101775.31
2023-05-21T16:19:39.044Z,101785.06
2023-05-21T16:22:05.961Z,101771.78
2023-05-21T16:24:32.907Z,101780.38
2023-05-21T16:26:59.468Z,101778.56
2023-05-21T16:29:26.056Z,101779.22
2023-05-21T16:31:52.633Z,101781.84
2023-05-21T16:34:19.329Z,101785.56
2023-05-21T16:36:47.566Z,101784.56
2023-05-21T16:39:14.477Z,101783.09
2023-05-21T16:41:41.225Z,101778.47
2023-05-21T16:44:07.842Z,101787.22
2023-05-21T16:46:36.318Z,101784.19
2023-05-21T16:49:02.858Z,101783.84
2023-05-21T16:51:29.422Z,101789.16
2023-05-21T16:53:56.031Z,101788.47
2023-05-21T16:56:23.290Z,101791.72
2023-05-21T16:58:50.025Z,101787.88
2023-05-21T17:01:16.701Z,101786.88
2023-05-21T17:03:43.660Z,101780.63
2023-05-21T17:06:10.486Z,101785.22
2023-05-21T17:08:37.130Z,101784.28
2023-05-21T17:11:03.829Z,101788.66
2023-05-21T17:13:30.428Z,101790.91
2023-05-21T17:15:57.092Z,101788.03
2023-05-21T17:18:23.720Z,101790.09
2023-05-21T17:20:50.440Z,101793.78
2023-05-21T17:23:17.563Z,101783.09
2023-05-21T17:25:44.418Z,101791.13
2023-05-21T17:28:11.433Z,101792.31
2023-05-21T17:30:38.708Z,101794.66
2023-05-21T17:33:06.501Z,101790.88
2023-05-21T17:35:33.665Z,101790.28
2023-05-21T17:38:00.350Z,101794.25
2023-05-21T17:40:27.026Z,101792.31
2023-05-21T17:42:53.636Z,101794.91
2023-05-21T17:45:20.446Z,101788.47
2023-05-21T17:47:47.581Z,101781.03
2023-05-21T17:50:14.361Z,101786.81
2023-05-21T17:52:41.022Z,101788.28
2023-05-21T17:55:08.175Z,101787.59
2023-05-21T17:57:36.086Z,101789.63
2023-05-21T18:00:05.093Z,101791.25
2023-05-21T18:02:32.077Z,101794.16
2023-05-21T18:04:58.673Z,101801.81
2023-05-21T18:07:25.670Z,101791.25
2023-05-21T18:09:52.497Z,101795.66
2023-05-21T18:12:19.161Z,101798.94
2023-05-21T18:14:45.887Z,101800.50
2023-05-21T18:17:12.676Z,101792.25
2023-05-21T18:19:39.360Z,101794.50
2023-05-21T18:22:06.423Z,101798.25
2023-05-21T18:24:33.217Z,101795.66
2023-05-21T18:27:00.184Z,101793.41
2023-05-21T18:29:26.940Z,101793.41
2023-05-21T18:31:53.905Z,101792.38
2023-05-21T18:34:20.998Z,101798.91
2023-05-21T18:36:48.279Z,101793.84
2023-05-21T18:39:15.025Z,101791.72
2023-05-21T18:41:41.825Z,101794.38
2023-05-21T18:44:08.673Z,101797.06
2023-05-21T18:46:35.408Z,101804.16
2023-05-21T18:49:02.124Z,101801.91
2023-05-21T18:51:28.722Z,101800.22
2023-05-21T18:53:55.470Z,101803.81
2023-05-21T18:56:22.225Z,101795.56
2023-05-21T18:58:48.908Z,101792.22
2023-05-21T19:01:16.403Z,101787.56
2023-05-21T19:03:43.345Z,101801.78
2023-05-21T19:06:10.002Z,101800.28
2023-05-21T19:08:36.585Z,101804.56
2023-05-21T19:11:03.300Z,101808.59
2023-05-21T19:13:30.088Z,101802.75
2023-05-21T19:15:58.416Z,101802.44
2023-05-21T19:18:30.382Z,101805.47
2023-05-21T19:20:57.710Z,101802.81
2023-05-21T19:23:24.948Z,101800.59
2023-05-21T19:25:51.905Z,101801.59
2023-05-21T19:28:21.419Z,101807.88
2023-05-21T19:30:48.208Z,101804.00
2023-05-21T19:33:14.940Z,101811.28
2023-05-21T19:35:43.192Z,101814.81
2023-05-21T19:38:10.675Z,101805.94
2023-05-21T19:40:37.525Z,101812.41
2023-05-21T19:43:04.438Z,101808.31
2023-05-21T19:45:31.369Z,101813.16
2023-05-21T19:47:59.557Z,101813.03
2023-05-21T19:50:28.517Z,101807.88
2023-05-21T19:52:57.236Z,101819.25
2023-05-21T19:55:24.751Z,101817.22
2023-05-21T19:57:51.795Z,101824.44
2023-05-21T20:00:19.021Z,101819.53
2023-05-21T20:02:46.185Z,101829.69
2023-05-21T20:05:13.091Z,101823.69
2023-05-21T20:07:40.023Z,101830.22
2023-05-21T20:10:07.466Z,101826.59
2023-05-21T20:12:34.274Z,101831.88
2023-05-21T20:15:01.039Z,101824.91
2023-05-21T20:17:28.951Z,101831.13
2023-05-21T20:19:57.264Z,101830.34
2023-05-21T20:22:23.947Z,101833.84
2023-05-21T20:24:50.742Z,101841.63
2023-05-21T20:27:19.641Z,101840.47
2023-05-21T20:29:46.870Z,101835.72
2023-05-21T20:32:13.521Z,101842.69
2023-05-21T20:34:54.412Z,101839.53
2023-05-21T20:37:29.137Z,101834.75
2023-05-21T20:39:58.531Z,101833.59
2023-05-21T20:42:28.535Z,101823.59
2023-05-21T20:44:55.570Z,101833.88
2023-05-21T20:47:23.437Z,101833.25
2023-05-21T20:49:53.744Z,101825.00
2023-05-21T20:52:20.676Z,101822.13
2023-05-21T20:54:48.921Z,101831.94
2023-05-21T20:57:16.313Z,101821.13
2023-05-21T20:59:43.312Z,101815.88
2023-05-21T21:02:12.268Z,101814.09
2023-05-21T21:04:40.011Z,101815.97
2023-05-21T21:07:08.201Z,101811.22
2023-05-21T21:09:35.128Z,101822.28
2023-05-21T21:12:11.396Z,101812.16
2023-05-21T21:14:48.028Z,101815.47
2023-05-21T21:17:14.722Z,101819.69
2023-05-21T21:19:41.659Z,101825.38
2023-05-21T21:22:08.525Z,101819.84
2023-05-21T21:24:35.026Z,101819.66
2023-05-21T21:27:01.870Z,101807.28
2023-05-21T21:29:28.678Z,101809.19
2023-05-21T21:31:55.503Z,101808.41
2023-05-21T21:34:23.456Z,101808.41
2023-05-21T21:36:50.664Z,101797.97
2023-05-21T21:39:18.979Z,101805.06
2023-05-21T21:41:45.844Z,101804.56
2023-05-21T21:44:12.403Z,101804.06
2023-05-21T21:46:39.215Z,101802.81
2023-05-21T21:49:05.801Z,101805.19
2023-05-21T21:51:32.441Z,101797.25
2023-05-21T21:53:58.978Z,101802.75
2023-05-21T21:56:26.440Z,101804.03
2023-05-21T21:58:53.171Z,101801.34
2023-05-21T22:01:19.987Z,101802.28
2023-05-21T22:03:46.895Z,101799.41
2023-05-21T22:06:13.591Z,101806.47
2023-05-21T22:08:40.119Z,101803.31
2023-05-21T22:11:07.041Z,101803.44
2023-05-21T22:13:34.438Z,101808.31
2023-05-21T22:16:02.150Z,101795.91
2023-05-21T22:18:40.156Z,101794.63
2023-05-21T22:21:09.513Z,101800.78
2023-05-21T22:23:37.224Z,101796.47
2023-05-21T22:26:03.942Z,101788.75
2023-05-21T22:28:30.533Z,101792.81
2023-05-21T22:30:57.313Z,101788.84
2023-05-21T22:33:24.672Z,101787.09
2023-05-21T22:35:51.304Z,101785.53
2023-05-21T22:38:18.041Z,101790.41
2023-05-21T22:40:44.817Z,101785.63
2023-05-21T22:43:11.439Z,101786.25
2023-05-21T22:45:38.558Z,101784.16
2023-05-21T22:48:08.477Z,101779.41
2023-05-21T22:50:35.922Z,101780.00
2023-05-21T22:53:02.925Z,101782.38
2023-05-21T22:55:29.741Z,101777.59
2023-05-21T22:57:56.303Z,101784.38
2023-05-21T23:00:23.919Z,101784.09
2023-05-21T23:02:53.857Z,101786.75
2023-05-21T23:05:21.224Z,101799.41
2023-05-21T23:07:47.916Z,101804.78
2023-05-21T23:10:14.555Z,101789.44
2023-05-21T23:12:41.382Z,101800.19
2023-05-21T23:15:10.011Z,101811.91
2023-05-21T23:17:37.751Z,101841.22
2023-05-21T23:20:06.058Z,101831.16
2023-05-21T23:22:32.794Z,101844.97
2023-05-21T23:24:59.628Z,101851.31
2023-05-21T23:27:26.311Z,101851.81
2023-05-21T23:29:52.988Z,101841.28
2023-05-21T23:32:19.774Z,101840.19
2023-05-21T23:34:47.165Z,101828.66
2023-05-21T23:37:13.926Z,101830.22
2023-05-21T23:39:40.479Z,101811.31
2023-05-21T23:42:07.498Z,101805.09
2023-05-21T23:44:34.122Z,101807.88
2023-05-21T23:47:00.846Z,101812.75
2023-05-21T23:49:27.494Z,101810.41
2023-05-21T23:51:54.285Z,101802.44
2023-05-21T23:54:20.839Z,101800.47
2023-05-21T23:56:47.549Z,101789.97
2023-05-21T23:59:15.665Z,101786.41
